Gouda, Netherlands
Current Conditions -  °F | °C
As of 7:25 AM on Wednesday 28 Jan 2015 (Local Time) from EHRD Reporting Station
Broken Clouds Broken Clouds  
Wind Chill: 35°   Ceiling: 1500
Heat Index: 43°   Visibility: 6mi
Dew Point: 39°   Wind: 17mph
Humidity: 87%   Direction: 210°SSW
Pressure: 29.85"   Gusts: NA
Location:  52.02°N, 4.71°E
Report Text: EHRD 280625Z AUTO 21015KT 170V240 9999 FEW013 BKN015 BKN02206/04 Q1011 NOSIG
Loading
Personal Weather Stations






























Interactive Weather Map New forecast layout! Learn more

10-Day Weather Forecast

Advertisements
Track Severe Weather on mobile